createdAt,value
2019-03-30T00:02:27.698Z,20.08
2019-03-30T00:04:59.455Z,19.90
2019-03-30T00:07:31.562Z,19.35
2019-03-30T00:10:04.481Z,19.17
2019-03-30T00:12:36.266Z,19.42
2019-03-30T00:15:08.466Z,18.98
2019-03-30T00:17:40.746Z,19.32
2019-03-30T00:20:12.625Z,18.10
2019-03-30T00:22:44.846Z,18.77
2019-03-30T00:25:16.888Z,18.87
2019-03-30T00:27:48.695Z,19.62
2019-03-30T00:30:20.587Z,19.55
2019-03-30T00:32:52.405Z,19.25
2019-03-30T00:35:24.154Z,19.52
2019-03-30T00:37:56.306Z,20.65
2019-03-30T00:40:28.453Z,19.62
2019-03-30T00:43:00.590Z,20.72
2019-03-30T00:45:32.341Z,19.17
2019-03-30T00:48:04.142Z,19.90
2019-03-30T00:50:36.164Z,18.37
2019-03-30T00:53:08.088Z,18.75
2019-03-30T00:55:42.545Z,18.87
2019-03-30T00:58:14.327Z,18.07
2019-03-30T01:00:46.109Z,18.45
2019-03-30T01:03:18.182Z,18.73
2019-03-30T01:05:50.307Z,18.05
2019-03-30T01:08:22.404Z,18.62
2019-03-30T01:10:54.424Z,18.80
2019-03-30T01:13:26.467Z,17.45
2019-03-30T01:15:58.547Z,18.42
2019-03-30T01:18:30.668Z,18.45
2019-03-30T01:21:02.542Z,17.70
2019-03-30T01:23:34.695Z,18.40
2019-03-30T01:26:06.822Z,17.15
2019-03-30T01:28:38.837Z,17.70
2019-03-30T01:31:10.774Z,17.77
2019-03-30T01:33:42.761Z,18.42
2019-03-30T01:36:14.865Z,17.40
2019-03-30T01:38:47.182Z,17.32
2019-03-30T01:41:19.166Z,18.60
2019-03-30T01:43:51.353Z,18.50
2019-03-30T01:46:25.754Z,18.23
2019-03-30T01:48:57.587Z,18.17
2019-03-30T01:51:29.644Z,17.57
2019-03-30T01:54:01.586Z,18.60
2019-03-30T01:56:33.542Z,19.02
2019-03-30T01:59:05.676Z,18.82
2019-03-30T02:01:37.689Z,17.25
2019-03-30T02:04:09.875Z,19.27
2019-03-30T02:06:42.141Z,19.12
2019-03-30T02:09:14.194Z,19.37
2019-03-30T02:11:46.287Z,19.82
2019-03-30T02:14:19.315Z,19.67
2019-03-30T02:16:51.448Z,19.42
2019-03-30T02:19:23.500Z,18.95
2019-03-30T02:21:55.421Z,18.95
2019-03-30T02:24:27.376Z,20.00
2019-03-30T02:26:59.404Z,19.85
2019-03-30T02:29:31.702Z,19.23
2019-03-30T02:32:03.779Z,19.87
2019-03-30T02:34:35.788Z,19.30
2019-03-30T02:37:08.044Z,19.07
2019-03-30T02:39:40.263Z,17.73
2019-03-30T02:42:12.306Z,16.93
2019-03-30T02:44:44.377Z,17.92
2019-03-30T02:47:16.278Z,16.90
2019-03-30T02:49:48.175Z,16.45
2019-03-30T02:52:20.137Z,16.25
2019-03-30T02:54:51.947Z,16.25
2019-03-30T02:57:24.048Z,15.90
2019-03-30T02:59:55.860Z,17.17
2019-03-30T03:02:27.706Z,15.58
2019-03-30T03:04:59.575Z,17.77
2019-03-30T03:07:31.321Z,17.48
2019-03-30T03:10:03.670Z,18.57
2019-03-30T03:12:35.789Z,19.40
2019-03-30T03:15:08.010Z,19.23
2019-03-30T03:17:41.015Z,21.30
2019-03-30T03:20:13.389Z,22.50
2019-03-30T03:22:45.382Z,19.17
2019-03-30T03:25:17.363Z,19.82
2019-03-30T03:27:49.233Z,20.30
2019-03-30T03:30:21.539Z,20.92
2019-03-30T03:32:53.624Z,22.15
2019-03-30T03:35:25.489Z,21.23
2019-03-30T03:37:57.477Z,25.77
2019-03-30T03:40:29.486Z,25.75
2019-03-30T03:43:01.618Z,21.20
2019-03-30T03:45:34.547Z,22.20
2019-03-30T03:48:06.766Z,24.20
2019-03-30T03:50:44.609Z,26.48
2019-03-30T03:53:17.336Z,26.82
2019-03-30T03:55:49.586Z,19.87
2019-03-30T03:58:24.646Z,22.22
2019-03-30T04:00:58.531Z,19.02
2019-03-30T04:03:32.595Z,21.25
2019-03-30T04:06:07.201Z,21.25
2019-03-30T04:08:48.224Z,20.43
2019-03-30T04:11:23.907Z,20.30
2019-03-30T04:13:57.781Z,20.68
2019-03-30T04:16:30.021Z,19.60
2019-03-30T04:19:02.280Z,18.77
2019-03-30T04:21:43.933Z,18.57
2019-03-30T04:24:08.407Z,19.57
2019-03-30T04:26:40.415Z,18.27
2019-03-30T04:29:12.455Z,18.80
2019-03-30T04:31:44.476Z,18.52
2019-03-30T04:35:19.052Z,19.60
2019-03-30T04:37:50.884Z,17.73
2019-03-30T04:40:22.711Z,19.02
2019-03-30T04:42:54.851Z,20.23
2019-03-30T04:45:27.149Z,18.85
2019-03-30T04:47:59.208Z,16.97
2019-03-30T04:50:31.311Z,16.55
2019-03-30T04:53:04.386Z,16.60
2019-03-30T04:55:36.560Z,16.02
2019-03-30T04:58:09.417Z,16.42
2019-03-30T05:00:44.580Z,16.70
2019-03-30T05:03:16.803Z,16.90
2019-03-30T05:05:48.773Z,17.25
2019-03-30T05:08:20.740Z,16.67
2019-03-30T05:10:52.489Z,16.60
2019-03-30T05:13:24.227Z,17.02
2019-03-30T05:15:56.213Z,17.80
2019-03-30T05:18:28.141Z,17.37
2019-03-30T05:20:59.917Z,16.62
2019-03-30T05:23:31.784Z,17.25
2019-03-30T05:26:03.563Z,20.32
2019-03-30T05:28:35.335Z,17.70
2019-03-30T05:31:07.270Z,19.65
2019-03-30T05:33:39.497Z,19.73
2019-03-30T05:36:11.386Z,20.35
2019-03-30T05:38:43.129Z,21.80
2019-03-30T05:41:14.992Z,21.68
2019-03-30T05:43:46.771Z,21.90
2019-03-30T05:46:18.791Z,22.67
2019-03-30T05:48:50.775Z,24.75
2019-03-30T05:51:22.845Z,25.75
2019-03-30T05:53:54.667Z,28.30
2019-03-30T05:56:27.096Z,27.02
2019-03-30T05:58:59.250Z,26.23
2019-03-30T06:01:31.304Z,24.77
2019-03-30T06:04:03.482Z,23.85
2019-03-30T06:06:35.514Z,23.92
2019-03-30T06:09:08.738Z,23.35
2019-03-30T06:11:40.861Z,22.25
2019-03-30T06:14:13.018Z,22.73
2019-03-30T06:16:45.097Z,22.73
2019-03-30T06:19:17.139Z,22.42
2019-03-30T06:21:57.120Z,23.57
2019-03-30T06:24:28.923Z,22.80
2019-03-30T06:27:01.011Z,22.55
2019-03-30T06:29:32.964Z,24.60
2019-03-30T06:32:05.362Z,28.50
2019-03-30T06:34:37.351Z,28.42
2019-03-30T06:37:09.403Z,28.00
2019-03-30T06:39:44.671Z,29.18
2019-03-30T06:42:16.640Z,27.05
2019-03-30T06:44:48.524Z,26.10
2019-03-30T06:47:20.541Z,26.70
2019-03-30T06:49:52.313Z,25.62
2019-03-30T06:52:24.248Z,26.37
2019-03-30T06:54:56.167Z,24.70
2019-03-30T06:57:27.946Z,29.50
2019-03-30T06:59:59.740Z,23.15
2019-03-30T07:02:31.676Z,23.15
2019-03-30T07:05:03.640Z,23.15
2019-03-30T07:07:36.721Z,22.85
2019-03-30T07:10:08.870Z,21.60
2019-03-30T07:12:46.167Z,21.75
2019-03-30T07:15:17.928Z,21.37
2019-03-30T07:17:50.079Z,21.48
2019-03-30T07:20:31.616Z,21.90
2019-03-30T07:23:11.887Z,18.90
2019-03-30T07:25:37.361Z,17.37
2019-03-30T07:28:09.567Z,18.65
2019-03-30T07:30:41.664Z,18.90
2019-03-30T07:33:13.975Z,17.17
2019-03-30T07:35:46.153Z,16.82
2019-03-30T07:41:08.910Z,14.43
2019-03-30T07:43:41.282Z,14.03
2019-03-30T07:46:13.562Z,15.30
2019-03-30T07:48:47.487Z,15.70
2019-03-30T07:51:19.555Z,14.90
2019-03-30T07:53:51.520Z,15.38
2019-03-30T07:56:23.511Z,16.32
2019-03-30T07:58:56.653Z,16.07
2019-03-30T08:01:28.750Z,15.08
2019-03-30T08:04:00.725Z,11.45
2019-03-30T08:06:32.925Z,12.07
2019-03-30T08:09:06.297Z,15.78
2019-03-30T08:11:38.656Z,14.68
2019-03-30T08:14:10.805Z,14.50
2019-03-30T08:16:43.087Z,14.30
2019-03-30T08:19:15.148Z,13.18
2019-03-30T08:21:47.215Z,12.00
2019-03-30T08:24:19.152Z,14.28
2019-03-30T08:26:51.024Z,13.93
2019-03-30T08:29:22.828Z,15.75
2019-03-30T08:31:54.582Z,16.05
2019-03-30T08:34:26.462Z,17.92
2019-03-30T08:36:59.422Z,15.08
2019-03-30T08:39:31.333Z,10.80
2019-03-30T08:42:03.770Z,11.30
2019-03-30T08:44:35.649Z,11.20
2019-03-30T08:47:07.586Z,10.80
2019-03-30T08:49:39.672Z,11.68
2019-03-30T08:52:11.465Z,11.20
2019-03-30T08:54:43.274Z,25.12
2019-03-30T08:57:15.309Z,11.40
2019-03-30T08:59:47.356Z,11.97
2019-03-30T09:02:19.336Z,10.98
2019-03-30T09:04:51.886Z,10.90
2019-03-30T09:07:27.047Z,11.93
2019-03-30T09:09:58.671Z,11.97
2019-03-30T09:12:30.166Z,15.77
2019-03-30T09:15:01.688Z,11.13
2019-03-30T09:17:37.037Z,11.40
2019-03-30T09:20:07.841Z,10.23
2019-03-30T09:22:39.554Z,10.90
2019-03-30T09:25:11.368Z,14.90
2019-03-30T09:27:43.212Z,9.93
2019-03-30T09:30:15.125Z,9.73
2019-03-30T09:32:47.019Z,15.83
2019-03-30T09:35:19.244Z,8.03
2019-03-30T09:37:52.166Z,9.13
2019-03-30T09:40:24.033Z,9.00
2019-03-30T09:42:55.885Z,9.67
2019-03-30T09:45:27.482Z,10.27
2019-03-30T09:48:09.682Z,10.10
2019-03-30T09:50:42.880Z,9.07
2019-03-30T09:53:14.776Z,10.93
2019-03-30T09:55:46.442Z,15.90
2019-03-30T09:58:18.104Z,9.20
2019-03-30T10:00:49.746Z,9.77
2019-03-30T10:03:22.746Z,9.13
2019-03-30T10:05:54.320Z,9.63
2019-03-30T10:08:26.123Z,9.60
2019-03-30T10:10:57.842Z,9.63
2019-03-30T10:13:29.717Z,16.40
2019-03-30T10:16:01.735Z,9.07
2019-03-30T10:18:33.526Z,8.73
2019-03-30T10:21:05.531Z,10.03
2019-03-30T10:23:37.447Z,13.47
2019-03-30T10:26:09.657Z,10.43
2019-03-30T10:28:41.552Z,9.50
2019-03-30T10:31:13.402Z,9.90
2019-03-30T10:33:45.405Z,10.60
2019-03-30T10:36:17.256Z,9.40
2019-03-30T10:38:49.080Z,9.33
2019-03-30T10:41:20.939Z,9.70
2019-03-30T10:43:52.924Z,9.53
2019-03-30T10:46:24.537Z,10.33
2019-03-30T10:48:56.339Z,9.37
2019-03-30T10:51:28.175Z,10.33
2019-03-30T10:54:00.187Z,9.60
2019-03-30T10:56:32.132Z,9.20
2019-03-30T10:59:04.397Z,8.97
2019-03-30T11:01:36.969Z,9.73
2019-03-30T11:04:09.477Z,10.37
2019-03-30T11:06:41.383Z,9.50
2019-03-30T11:09:13.410Z,10.47
2019-03-30T11:11:45.234Z,9.17
2019-03-30T11:14:17.071Z,10.63
2019-03-30T11:16:48.906Z,9.77
2019-03-30T11:19:21.074Z,10.60
2019-03-30T11:21:52.922Z,8.97
2019-03-30T11:24:24.818Z,10.07
2019-03-30T11:26:56.761Z,9.27
2019-03-30T11:29:28.615Z,11.83
2019-03-30T11:32:00.720Z,10.70
2019-03-30T11:34:33.324Z,9.83
2019-03-30T11:37:05.216Z,10.73
2019-03-30T11:39:37.100Z,10.53
2019-03-30T11:42:08.615Z,9.47
2019-03-30T11:44:40.278Z,8.43
2019-03-30T11:47:11.927Z,7.67
2019-03-30T11:49:43.590Z,9.23
2019-03-30T11:52:15.465Z,7.57
2019-03-30T11:54:47.336Z,10.40
2019-03-30T11:57:18.939Z,9.17
2019-03-30T11:59:50.913Z,9.40
2019-03-30T12:02:28.259Z,9.37
2019-03-30T12:04:55.888Z,9.10
2019-03-30T12:07:27.702Z,9.60
2019-03-30T12:09:59.289Z,9.30
2019-03-30T12:12:30.836Z,8.77
2019-03-30T12:15:02.755Z,10.03
2019-03-30T12:17:34.925Z,9.30
2019-03-30T12:20:06.765Z,9.33
2019-03-30T12:22:38.704Z,9.47
2019-03-30T12:25:10.530Z,9.03
2019-03-30T12:27:43.093Z,9.17
2019-03-30T12:30:15.954Z,9.70
2019-03-30T12:32:47.664Z,8.80
2019-03-30T12:35:20.115Z,9.00
2019-03-30T12:37:51.759Z,8.57
2019-03-30T12:40:23.444Z,9.33
2019-03-30T12:42:55.295Z,10.00
2019-03-30T12:45:26.882Z,9.63
2019-03-30T12:47:58.415Z,7.97
2019-03-30T12:50:30.143Z,9.37
2019-03-30T12:53:02.265Z,8.37
2019-03-30T12:55:48.632Z,9.80
2019-03-30T12:58:13.375Z,9.43
2019-03-30T13:00:45.047Z,9.00
2019-03-30T13:03:16.691Z,8.93
2019-03-30T13:05:49.556Z,9.60
2019-03-30T13:08:21.654Z,8.87
2019-03-30T13:10:53.255Z,8.70
2019-03-30T13:13:25.050Z,8.60
2019-03-30T13:15:56.639Z,8.93
2019-03-30T13:18:28.175Z,8.50
2019-03-30T13:21:02.144Z,8.83
2019-03-30T13:23:33.727Z,7.80
2019-03-30T13:26:05.654Z,7.00
2019-03-30T13:28:37.490Z,7.57
2019-03-30T13:31:09.269Z,7.37
2019-03-30T13:33:40.932Z,7.27
2019-03-30T13:36:14.410Z,7.10
2019-03-30T13:38:46.098Z,7.00
2019-03-30T13:41:17.923Z,8.20
2019-03-30T13:43:49.670Z,8.33
2019-03-30T13:46:21.657Z,7.60
2019-03-30T13:48:53.536Z,8.23
2019-03-30T13:51:25.181Z,8.47
2019-03-30T13:53:56.829Z,7.47
2019-03-30T13:56:28.517Z,7.93
2019-03-30T13:59:00.613Z,8.37
2019-03-30T14:01:32.122Z,7.80
2019-03-30T14:04:04.766Z,8.43
2019-03-30T14:06:36.703Z,7.90
2019-03-30T14:09:09.757Z,7.00
2019-03-30T14:11:41.815Z,7.83
2019-03-30T14:14:13.553Z,8.00
2019-03-30T14:16:45.258Z,8.87
2019-03-30T14:19:17.054Z,8.37
2019-03-30T14:21:48.861Z,8.70
2019-03-30T14:24:20.903Z,9.30
2019-03-30T14:26:52.618Z,10.23
2019-03-30T14:29:24.587Z,9.10
2019-03-30T14:31:56.227Z,9.47
2019-03-30T14:34:27.963Z,8.97
2019-03-30T14:37:01.694Z,9.27
2019-03-30T14:39:33.936Z,10.07
2019-03-30T14:42:06.180Z,10.10
2019-03-30T14:44:38.847Z,9.30
2019-03-30T14:47:10.674Z,10.77
2019-03-30T14:49:42.479Z,10.27
2019-03-30T14:52:14.356Z,10.83
2019-03-30T14:54:52.622Z,9.97
2019-03-30T14:57:19.685Z,11.37
2019-03-30T14:59:51.219Z,12.27
2019-03-30T15:02:23.076Z,10.50
2019-03-30T15:04:54.847Z,12.80
2019-03-30T15:07:26.727Z,11.30
2019-03-30T15:09:58.456Z,10.40
2019-03-30T15:12:30.090Z,12.10
2019-03-30T15:15:01.642Z,11.43
2019-03-30T15:17:33.094Z,11.50
2019-03-30T15:20:04.882Z,10.70
2019-03-30T15:22:36.560Z,11.17
2019-03-30T15:25:09.020Z,11.23
2019-03-30T15:27:40.697Z,10.93
2019-03-30T15:30:12.679Z,11.80
2019-03-30T15:32:44.437Z,11.90
2019-03-30T15:35:16.364Z,12.23
2019-03-30T15:37:48.274Z,11.63
2019-03-30T15:40:19.963Z,10.73
2019-03-30T15:42:51.684Z,11.50
2019-03-30T15:45:23.380Z,11.80
2019-03-30T15:47:52.269Z,11.10
2019-03-30T15:50:23.891Z,13.23
2019-03-30T15:52:55.494Z,12.87
2019-03-30T15:55:26.974Z,13.07
2019-03-30T15:57:58.562Z,13.70
2019-03-30T16:00:30.227Z,12.60
2019-03-30T16:03:02.089Z,13.73
2019-03-30T16:05:33.859Z,12.57
2019-03-30T16:08:05.509Z,14.10
2019-03-30T16:10:39.266Z,14.03
2019-03-30T16:13:14.407Z,13.70
2019-03-30T16:15:44.775Z,13.90
2019-03-30T16:18:16.657Z,13.17
2019-03-30T16:20:48.640Z,13.07
2019-03-30T16:23:20.697Z,13.90
2019-03-30T16:25:52.380Z,12.70
2019-03-30T16:28:23.994Z,13.73
2019-03-30T16:30:56.124Z,14.03
2019-03-30T16:33:28.069Z,14.87
2019-03-30T16:36:02.710Z,15.13
2019-03-30T16:38:34.305Z,14.37
2019-03-30T16:41:06.079Z,16.73
2019-03-30T16:43:37.561Z,15.03
2019-03-30T16:46:09.465Z,14.17
2019-03-30T16:48:41.254Z,13.40
2019-03-30T16:51:12.881Z,13.83
2019-03-30T16:53:47.272Z,14.20
2019-03-30T16:56:18.463Z,15.17
2019-03-30T16:58:50.726Z,15.90
2019-03-30T17:01:22.537Z,15.03
2019-03-30T17:03:54.592Z,16.77
2019-03-30T17:06:26.402Z,17.60
2019-03-30T17:08:58.002Z,19.47
2019-03-30T17:11:29.485Z,17.57
2019-03-30T17:14:01.294Z,18.13
2019-03-30T17:16:33.803Z,18.73
2019-03-30T17:19:05.652Z,16.20
2019-03-30T17:21:37.765Z,18.07
2019-03-30T17:24:09.874Z,19.80
2019-03-30T17:26:41.908Z,22.50
2019-03-30T17:29:13.487Z,18.90
2019-03-30T17:31:45.194Z,19.57
2019-03-30T17:34:16.798Z,18.53
2019-03-30T17:36:48.777Z,17.60
2019-03-30T17:39:21.751Z,18.17
2019-03-30T17:41:53.745Z,17.95
2019-03-30T17:44:25.894Z,16.90
2019-03-30T17:46:57.636Z,21.00
2019-03-30T17:49:29.462Z,16.87
2019-03-30T17:52:01.455Z,16.50
2019-03-30T17:54:33.669Z,15.63
2019-03-30T17:57:05.789Z,16.55
2019-03-30T17:59:37.741Z,15.70
2019-03-30T18:02:09.816Z,16.77
2019-03-30T18:04:41.889Z,16.00
2019-03-30T18:07:13.967Z,15.98
2019-03-30T18:09:45.802Z,16.30
2019-03-30T18:12:20.405Z,15.98
2019-03-30T18:14:52.550Z,16.17
2019-03-30T18:17:24.692Z,17.75
2019-03-30T18:19:56.891Z,16.70
2019-03-30T18:22:28.871Z,16.32
2019-03-30T18:25:00.703Z,17.05
2019-03-30T18:27:33.666Z,18.80
2019-03-30T18:30:06.861Z,18.90
2019-03-30T18:32:38.514Z,20.10
2019-03-30T18:35:11.129Z,20.50
2019-03-30T18:37:43.501Z,20.68
2019-03-30T18:40:28.851Z,22.42
2019-03-30T18:43:02.964Z,19.60
2019-03-30T18:45:35.262Z,21.65
2019-03-30T18:48:17.897Z,20.70
2019-03-30T18:50:50.340Z,20.57
2019-03-30T18:53:22.430Z,20.05
2019-03-30T18:55:54.695Z,20.82
2019-03-30T18:58:40.963Z,20.05
2019-03-30T19:01:01.669Z,23.55
2019-03-30T19:03:33.792Z,21.10
2019-03-30T19:06:06.186Z,20.82
2019-03-30T19:08:38.223Z,21.68
2019-03-30T19:11:10.398Z,19.10
2019-03-30T19:13:42.497Z,20.32
2019-03-30T19:16:14.658Z,21.77
2019-03-30T19:18:46.758Z,21.62
2019-03-30T19:21:18.926Z,21.85
2019-03-30T19:23:51.015Z,23.18
2019-03-30T19:26:24.181Z,24.85
2019-03-30T19:28:56.943Z,25.55
2019-03-30T19:31:29.087Z,24.47
2019-03-30T19:34:01.804Z,24.67
2019-03-30T19:36:33.652Z,29.85
2019-03-30T19:39:09.013Z,25.20
2019-03-30T19:41:41.268Z,25.70
2019-03-30T19:44:13.525Z,25.90
2019-03-30T19:46:45.388Z,26.30
2019-03-30T19:49:17.181Z,26.35
2019-03-30T19:51:49.409Z,26.37
2019-03-30T19:54:21.486Z,25.40
2019-03-30T19:56:53.613Z,25.75
2019-03-30T19:59:25.478Z,26.62
2019-03-30T20:01:57.772Z,25.32
2019-03-30T20:04:29.757Z,33.80
2019-03-30T20:07:01.762Z,34.55
2019-03-30T20:09:33.816Z,36.77
2019-03-30T20:12:06.346Z,31.68
2019-03-30T20:14:38.395Z,26.33
2019-03-30T20:17:10.485Z,27.32
2019-03-30T20:19:42.648Z,26.17
2019-03-30T20:22:15.648Z,24.85
2019-03-30T20:24:47.601Z,25.50
2019-03-30T20:27:20.044Z,24.67
2019-03-30T20:29:51.893Z,24.57
2019-03-30T20:32:53.007Z,23.25
2019-03-30T20:35:25.105Z,25.57
2019-03-30T20:37:57.170Z,26.02
2019-03-30T20:40:29.388Z,24.90
2019-03-30T20:43:01.483Z,26.15
2019-03-30T20:45:33.427Z,25.60
2019-03-30T20:48:05.352Z,28.20
2019-03-30T20:50:37.176Z,24.50
2019-03-30T20:53:09.177Z,24.40
2019-03-30T20:55:41.385Z,23.38
2019-03-30T20:58:13.375Z,24.10
2019-03-30T21:00:45.668Z,25.72
2019-03-30T21:03:17.740Z,24.43
2019-03-30T21:05:49.992Z,25.43
2019-03-30T21:08:21.835Z,24.07
2019-03-30T21:10:53.639Z,22.27
2019-03-30T21:13:25.495Z,22.95
2019-03-30T21:15:57.447Z,22.90
2019-03-30T21:18:29.503Z,22.42
2019-03-30T21:21:01.633Z,22.32
2019-03-30T21:23:33.785Z,21.95
2019-03-30T21:26:06.771Z,22.60
2019-03-30T21:28:40.148Z,23.42
2019-03-30T21:31:11.912Z,24.85
2019-03-30T21:33:44.214Z,26.73
2019-03-30T21:36:16.396Z,23.18
2019-03-30T21:38:48.585Z,23.00
2019-03-30T21:41:20.837Z,22.50
2019-03-30T21:43:52.873Z,22.60
2019-03-30T21:46:25.068Z,22.15
2019-03-30T21:48:57.039Z,23.47
2019-03-30T21:51:29.163Z,21.80
2019-03-30T21:54:01.102Z,23.45
2019-03-30T21:56:33.107Z,23.25
2019-03-30T21:59:05.388Z,23.00
2019-03-30T22:01:37.499Z,28.85
2019-03-30T22:04:09.715Z,23.57
2019-03-30T22:06:42.429Z,23.12
2019-03-30T22:09:14.364Z,22.80
2019-03-30T22:11:46.420Z,24.67
2019-03-30T22:14:18.599Z,22.17
2019-03-30T22:16:50.602Z,23.20
2019-03-30T22:19:22.585Z,22.98
2019-03-30T22:21:54.539Z,24.27
2019-03-30T22:24:26.637Z,22.62
2019-03-30T22:26:58.684Z,23.07
2019-03-30T22:29:30.481Z,25.75
2019-03-30T22:32:02.431Z,22.87
2019-03-30T22:34:34.547Z,22.20
2019-03-30T22:37:06.566Z,22.58
2019-03-30T22:39:38.903Z,22.50
2019-03-30T22:42:10.961Z,26.93
2019-03-30T22:44:42.865Z,23.85
2019-03-30T22:47:14.998Z,24.47
2019-03-30T22:49:47.035Z,23.52
2019-03-30T22:52:20.473Z,23.47
2019-03-30T22:54:52.357Z,22.95
2019-03-30T22:57:24.516Z,21.90
2019-03-30T22:59:56.658Z,22.27
2019-03-30T23:02:28.563Z,22.35
2019-03-30T23:05:01.190Z,22.70
2019-03-30T23:07:34.514Z,22.55
2019-03-30T23:10:07.311Z,20.70
2019-03-30T23:12:39.488Z,21.52
2019-03-30T23:15:11.487Z,21.12
2019-03-30T23:17:43.587Z,22.30
2019-03-30T23:20:15.534Z,22.22
2019-03-30T23:22:48.509Z,25.85
2019-03-30T23:25:20.648Z,21.30
2019-03-30T23:27:52.874Z,21.50
2019-03-30T23:30:24.871Z,20.95
2019-03-30T23:32:57.008Z,23.62
2019-03-30T23:35:29.092Z,21.90
2019-03-30T23:38:01.195Z,21.50
2019-03-30T23:40:33.068Z,23.07
2019-03-30T23:43:05.394Z,21.80
2019-03-30T23:45:37.577Z,19.50
2019-03-30T23:48:09.846Z,20.95
2019-03-30T23:50:42.099Z,21.17
2019-03-30T23:53:14.251Z,20.12
2019-03-30T23:55:46.487Z,19.87
2019-03-30T23:58:18.665Z,20.75
